Time;durP1;ratioP1;P1;durP2;ratioP2;P2;SDS_P1;SDS_P2;PMS_P1;PMS_P2;Temp;Humidity;BMP_temperature;BMP_pressure;BME280_temperature;BME280_humidity;BME280_pressure;Samples;Min_cycle;Max_cycle;Signal;HPM_P1;HPM_P2
2022/04/06 00:00:08;;;;;;;11.80;8.40;;;10.50;99.90;;;;;;5072046;28;20174;-66
2022/04/06 00:02:34;;;;;;;8.80;7.90;;;10.50;99.90;;;;;;5056957;28;20182;-65
2022/04/06 00:05:00;;;;;;;10.23;8.87;;;10.50;99.90;;;;;;5051199;28;20190;-65
2022/04/06 00:07:26;;;;;;;10.50;8.07;;;10.60;99.90;;;;;;5051437;28;20205;-65
2022/04/06 00:09:52;;;;;;;10.77;8.00;;;10.50;99.90;;;;;;5058881;28;20208;-65
2022/04/06 00:12:17;;;;;;;10.30;7.73;;;10.50;99.90;;;;;;5071227;28;20185;-65
2022/04/06 00:14:43;;;;;;;12.17;9.77;;;10.50;99.90;;;;;;5069268;28;20182;-65
2022/04/06 00:17:10;;;;;;;13.60;8.80;;;10.50;99.90;;;;;;5069961;28;20857;-66
2022/04/06 00:19:36;;;;;;;9.10;8.20;;;10.50;99.90;;;;;;5064794;28;20205;-65
2022/04/06 00:22:03;;;;;;;10.00;8.43;;;10.50;99.90;;;;;;5051955;28;20175;-65
2022/04/06 00:24:29;;;;;;;13.20;8.33;;;10.50;99.90;;;;;;5055914;28;20181;-65
2022/04/06 00:26:55;;;;;;;8.53;7.50;;;10.50;99.90;;;;;;5070190;28;20202;-66
2022/04/06 00:29:20;;;;;;;12.37;9.53;;;10.50;99.90;;;;;;5052752;28;20214;-65
2022/04/06 00:31:46;;;;;;;8.47;7.53;;;10.50;99.90;;;;;;5051641;28;20193;-65
2022/04/06 00:34:11;;;;;;;8.67;7.50;;;10.50;99.90;;;;;;5067780;28;20284;-65
2022/04/06 00:36:37;;;;;;;8.40;7.07;;;10.40;99.90;;;;;;5070644;28;20209;-66
2022/04/06 00:39:03;;;;;;;11.43;8.40;;;10.40;99.90;;;;;;5055663;28;20187;-66
2022/04/06 00:41:29;;;;;;;8.50;7.70;;;10.40;99.90;;;;;;5050997;28;20198;-66
2022/04/06 00:44:11;;;;;;;13.33;9.23;;;10.40;99.90;;;;;;5070593;28;20189;-66
2022/04/06 00:46:37;;;;;;;11.50;7.43;;;10.40;99.90;;;;;;5070496;28;20204;-67
2022/04/06 00:49:03;;;;;;;10.73;7.80;;;10.40;99.90;;;;;;5050906;28;20206;-66
2022/04/06 00:51:29;;;;;;;9.40;7.63;;;10.40;99.90;;;;;;5048635;28;20178;-66
2022/04/06 00:53:55;;;;;;;10.47;7.77;;;10.40;99.90;;;;;;5067938;28;20182;-66
2022/04/06 00:56:21;;;;;;;8.97;8.17;;;10.40;99.90;;;;;;5069924;28;20190;-66
2022/04/06 00:58:47;;;;;;;10.70;7.43;;;10.40;99.90;;;;;;5056765;28;20652;-66
2022/04/06 01:01:13;;;;;;;8.07;7.47;;;10.40;99.90;;;;;;5055589;28;20216;-66
2022/04/06 01:03:40;;;;;;;8.37;7.57;;;10.40;99.90;;;;;;5070174;28;20182;-66
2022/04/06 01:06:07;;;;;;;8.90;7.43;;;10.40;99.90;;;;;;5075164;28;20193;-66
2022/04/06 01:08:33;;;;;;;11.27;7.23;;;10.40;99.90;;;;;;5073267;28;20217;-66
2022/04/06 01:10:59;;;;;;;9.67;8.03;;;10.40;99.90;;;;;;5073980;28;20166;-66
2022/04/06 01:13:27;;;;;;;8.03;7.23;;;10.30;99.90;;;;;;5061129;28;20185;-66
2022/04/06 01:15:53;;;;;;;9.47;6.87;;;10.40;99.90;;;;;;5054649;28;20191;-65
2022/04/06 01:18:18;;;;;;;11.17;8.30;;;10.40;99.90;;;;;;5065277;28;20228;-65
2022/04/06 01:20:44;;;;;;;8.03;7.33;;;10.40;99.90;;;;;;5074265;28;20174;-65
2022/04/06 01:23:09;;;;;;;9.13;7.17;;;10.40;99.90;;;;;;5064092;28;20269;-65
2022/04/06 01:25:38;;;;;;;7.77;6.97;;;10.30;99.90;;;;;;5054244;28;20194;-64
2022/04/06 01:28:04;;;;;;;6.97;6.37;;;10.30;99.90;;;;;;5061551;28;20208;-66
2022/04/06 01:30:30;;;;;;;7.10;6.40;;;10.30;99.90;;;;;;5073700;28;20162;-66
2022/04/06 01:32:57;;;;;;;7.77;7.07;;;10.30;99.90;;;;;;5055454;28;20191;-66
2022/04/06 01:35:24;;;;;;;10.97;6.87;;;10.30;99.90;;;;;;5054499;28;20198;-66
2022/04/06 01:37:49;;;;;;;10.80;7.53;;;10.30;99.90;;;;;;5065917;28;20273;-66
2022/04/06 01:40:15;;;;;;;11.80;8.07;;;10.30;99.90;;;;;;5054832;28;20337;-67
2022/04/06 01:42:41;;;;;;;8.17;7.37;;;10.30;99.90;;;;;;5055754;28;20179;-67
2022/04/06 01:45:07;;;;;;;15.87;7.43;;;10.30;99.90;;;;;;5073062;28;20193;-66
2022/04/06 01:47:33;;;;;;;8.77;7.23;;;10.30;99.90;;;;;;5074165;28;20235;-66
2022/04/06 01:52:43;;;;;;;10.53;7.70;;;10.30;99.90;;;;;;5054206;28;20177;-65
2022/04/06 01:55:11;;;;;;;8.00;7.30;;;10.30;99.90;;;;;;5073264;28;20178;-66
2022/04/06 01:57:38;;;;;;;13.33;8.83;;;10.30;99.90;;;;;;5073381;28;20174;-66
2022/04/06 02:00:10;;;;;;;13.13;8.30;;;10.30;99.90;;;;;;5054164;28;20171;-66
2022/04/06 02:02:37;;;;;;;11.07;7.80;;;10.20;99.90;;;;;;5055790;28;20185;-66
2022/04/06 02:05:03;;;;;;;8.43;7.53;;;10.30;99.90;;;;;;5073720;28;20181;-66
2022/04/06 02:07:29;;;;;;;8.67;7.60;;;10.20;99.90;;;;;;5070789;28;20260;-66
2022/04/06 02:09:58;;;;;;;11.63;7.73;;;10.30;99.90;;;;;;5051234;28;20239;-66
2022/04/06 02:12:24;;;;;;;10.83;7.90;;;10.20;99.90;;;;;;5054496;28;20232;-66
2022/04/06 02:14:50;;;;;;;7.90;7.00;;;10.20;99.90;;;;;;5073343;28;20174;-65
2022/04/06 02:17:16;;;;;;;9.67;8.23;;;10.20;99.90;;;;;;5073683;28;20263;-66
2022/04/06 02:19:42;;;;;;;11.80;7.70;;;10.20;99.90;;;;;;5053029;28;20459;-66
2022/04/06 02:22:08;;;;;;;8.00;7.20;;;10.30;99.90;;;;;;5053918;28;20167;-66
2022/04/06 02:24:34;;;;;;;8.93;6.73;;;10.20;99.90;;;;;;5070504;28;20541;-66
2022/04/06 02:27:00;;;;;;;8.33;7.47;;;10.20;99.90;;;;;;5073638;28;20194;-66
2022/04/06 02:29:26;;;;;;;8.80;8.00;;;10.20;99.90;;;;;;5071901;28;20645;-66
2022/04/06 02:31:52;;;;;;;11.63;7.67;;;10.20;99.90;;;;;;5073597;28;20265;-65
2022/04/06 02:34:18;;;;;;;9.57;8.63;;;10.20;99.90;;;;;;5059666;28;20655;-65
2022/04/06 02:36:44;;;;;;;12.07;7.57;;;10.20;99.90;;;;;;5053187;28;20206;-66
2022/04/06 02:39:10;;;;;;;8.80;8.00;;;10.20;99.90;;;;;;5053469;28;20709;-66
2022/04/06 02:41:35;;;;;;;9.60;8.07;;;10.20;99.90;;;;;;5053341;28;20682;-66
2022/04/06 02:44:01;;;;;;;9.93;7.90;;;10.20;99.90;;;;;;5062656;28;20189;-65
2022/04/06 02:46:27;;;;;;;9.10;8.40;;;10.20;99.90;;;;;;5072911;28;20236;-66
2022/04/06 02:48:52;;;;;;;8.80;8.10;;;10.20;99.90;;;;;;5062741;28;20214;-66
2022/04/06 02:51:18;;;;;;;12.80;7.63;;;10.20;99.90;;;;;;5063291;28;20166;-65
2022/04/06 02:53:44;;;;;;;8.57;7.20;;;10.10;99.90;;;;;;5071315;28;20178;-66
2022/04/06 02:56:09;;;;;;;9.97;8.30;;;10.10;99.90;;;;;;5072531;28;20240;-65
2022/04/06 02:58:35;;;;;;;9.00;8.07;;;10.10;99.90;;;;;;5067221;28;20187;-65
2022/04/06 03:01:00;;;;;;;8.63;7.93;;;10.10;99.90;;;;;;5051798;28;20183;-66
2022/04/06 03:03:26;;;;;;;8.30;7.53;;;10.10;99.90;;;;;;5053400;28;20174;-66
2022/04/06 03:05:52;;;;;;;7.50;6.93;;;10.10;99.90;;;;;;5072655;28;20194;-66
2022/04/06 03:08:18;;;;;;;8.03;6.97;;;10.10;99.90;;;;;;5057513;28;20264;-66
2022/04/06 03:10:44;;;;;;;9.63;8.10;;;10.10;99.90;;;;;;5051661;28;20233;-66
2022/04/06 03:13:09;;;;;;;9.13;7.93;;;10.10;99.90;;;;;;5066482;28;20656;-66
2022/04/06 03:15:35;;;;;;;15.17;9.30;;;10.10;99.90;;;;;;5072848;28;20281;-66
2022/04/06 03:18:02;;;;;;;9.23;7.87;;;10.10;99.90;;;;;;5060753;28;20541;-66
2022/04/06 03:20:27;;;;;;;9.70;7.87;;;10.10;99.90;;;;;;5050424;28;20197;-66
2022/04/06 03:22:53;;;;;;;11.77;8.00;;;10.10;99.90;;;;;;5058335;28;20179;-66
2022/04/06 03:25:19;;;;;;;9.03;8.30;;;10.10;99.90;;;;;;5050957;28;20178;-67
2022/04/06 03:27:44;;;;;;;13.37;8.53;;;10.10;99.90;;;;;;5065689;28;20678;-67
2022/04/06 03:30:13;;;;;;;10.10;9.20;;;10.00;99.90;;;;;;5071382;28;20170;-66
2022/04/06 03:32:40;;;;;;;13.70;8.73;;;10.00;99.90;;;;;;5059626;28;20183;-66
2022/04/06 03:35:06;;;;;;;9.03;8.30;;;10.00;99.90;;;;;;5050844;28;20170;-66
2022/04/06 03:37:32;;;;;;;10.80;9.83;;;10.00;99.90;;;;;;5053170;28;20237;-66
2022/04/06 03:39:58;;;;;;;11.30;8.67;;;10.00;99.90;;;;;;5052728;28;20628;-66
2022/04/06 03:42:24;;;;;;;8.73;7.83;;;10.00;99.90;;;;;;5060924;28;20190;-65
2022/04/06 03:44:50;;;;;;;9.10;8.20;;;10.00;99.90;;;;;;5071995;28;20617;-66
2022/04/06 03:47:16;;;;;;;10.27;8.27;;;9.90;99.90;;;;;;5062842;28;20198;-66
2022/04/06 03:49:41;;;;;;;9.20;8.30;;;10.00;99.90;;;;;;5052186;28;20171;-66
2022/04/06 03:52:08;;;;;;;9.90;7.83;;;10.00;99.90;;;;;;5056752;28;20174;-66
2022/04/06 03:54:33;;;;;;;11.23;8.03;;;10.00;99.90;;;;;;5069491;28;20530;-66
2022/04/06 03:57:00;;;;;;;8.73;7.90;;;10.00;99.90;;;;;;5067388;28;20266;-65
2022/04/06 03:59:26;;;;;;;12.70;8.30;;;10.00;99.90;;;;;;5052251;28;20186;-66
2022/04/06 04:01:51;;;;;;;10.67;8.27;;;9.90;99.90;;;;;;5052990;28;20186;-65
2022/04/06 04:04:17;;;;;;;13.30;8.17;;;9.90;99.90;;;;;;5051837;28;20262;-66
2022/04/06 04:06:42;;;;;;;8.07;7.27;;;10.00;99.90;;;;;;5070224;28;20569;-66
2022/04/06 04:09:08;;;;;;;9.30;7.80;;;10.00;99.90;;;;;;5071571;28;20197;-66
2022/04/06 04:11:34;;;;;;;8.67;8.07;;;9.90;99.90;;;;;;5054408;28;20206;-65
2022/04/06 04:13:59;;;;;;;11.47;8.13;;;10.00;99.90;;;;;;5051400;28;20224;-65
2022/04/06 04:16:25;;;;;;;7.57;6.87;;;10.00;99.90;;;;;;5066868;28;20530;-65
2022/04/06 04:18:51;;;;;;;8.17;7.47;;;10.00;99.90;;;;;;5071711;28;20682;-63
2022/04/06 04:21:32;;;;;;;10.07;7.90;;;10.00;99.90;;;;;;5057253;28;20648;-65
2022/04/06 04:24:10;;;;;;;10.10;7.43;;;10.00;99.90;;;;;;5051236;28;20538;-66
2022/04/06 04:26:38;;;;;;;8.70;7.53;;;10.00;99.90;;;;;;5066342;28;20206;-65
2022/04/06 04:29:04;;;;;;;10.47;7.60;;;10.00;99.90;;;;;;5071250;28;20293;-66
2022/04/06 04:31:30;;;;;;;10.43;8.47;;;10.00;99.90;;;;;;5069597;28;20184;-63
2022/04/06 04:33:57;;;;;;;13.47;7.50;;;10.00;99.90;;;;;;5071058;28;20245;-66
2022/04/06 04:36:23;;;;;;;9.23;8.00;;;10.00;99.90;;;;;;5055790;28;20211;-65
2022/04/06 04:38:48;;;;;;;11.87;7.20;;;10.00;99.90;;;;;;5067964;28;20190;-64
2022/04/06 04:41:14;;;;;;;8.63;7.87;;;10.00;99.90;;;;;;5056427;28;20183;-66
2022/04/06 04:43:40;;;;;;;8.30;7.17;;;10.00;99.90;;;;;;5049877;28;20268;-66
2022/04/06 04:46:07;;;;;;;9.40;7.77;;;10.00;99.90;;;;;;5069390;28;20204;-66
2022/04/06 04:48:33;;;;;;;12.03;7.63;;;10.00;99.90;;;;;;5071375;28;20240;-66
2022/04/06 04:50:59;;;;;;;11.57;7.83;;;9.90;99.90;;;;;;5054220;28;20183;-66
2022/04/06 04:53:25;;;;;;;8.20;7.50;;;9.90;99.90;;;;;;5050884;28;20173;-65
2022/04/06 04:55:53;;;;;;;8.03;7.03;;;9.90;99.90;;;;;;5057334;28;20207;-64
2022/04/06 04:58:19;;;;;;;8.07;7.37;;;10.00;99.90;;;;;;5051191;28;20204;-65
2022/04/06 05:00:46;;;;;;;9.10;7.10;;;9.90;99.90;;;;;;5064385;28;20611;-64
2022/04/06 05:03:12;;;;;;;7.53;7.00;;;9.90;99.90;;;;;;5070980;28;20277;-66
2022/04/06 05:05:39;;;;;;;9.20;8.27;;;9.90;99.90;;;;;;5058782;28;20289;-65
2022/04/06 05:08:06;;;;;;;9.40;8.40;;;9.90;99.90;;;;;;5050990;28;20205;-65
2022/04/06 05:10:32;;;;;;;8.80;7.90;;;9.90;99.90;;;;;;5060713;28;20624;-65
2022/04/06 05:12:57;;;;;;;10.83;7.43;;;9.90;99.90;;;;;;5071020;28;20170;-65
2022/04/06 05:15:23;;;;;;;8.63;7.77;;;9.90;99.90;;;;;;5061303;28;20187;-65
2022/04/06 05:17:49;;;;;;;8.13;7.10;;;9.90;99.90;;;;;;5049350;28;20170;-65
2022/04/06 05:20:15;;;;;;;8.70;7.93;;;9.90;99.90;;;;;;5057372;28;20707;-66
2022/04/06 05:22:41;;;;;;;8.50;7.70;;;9.90;99.90;;;;;;5070959;28;20170;-66
2022/04/06 05:25:07;;;;;;;8.33;7.57;;;10.00;99.90;;;;;;5050973;28;20187;-66
2022/04/06 05:27:54;;;;;;;8.73;7.63;;;9.90;99.90;;;;;;5051085;28;20195;-66
2022/04/06 05:30:22;;;;;;;8.70;7.80;;;9.90;99.90;;;;;;5051160;28;20170;-66
2022/04/06 05:32:50;;;;;;;10.00;7.47;;;9.90;99.90;;;;;;5050842;28;20270;-66
2022/04/06 05:35:16;;;;;;;10.10;7.90;;;9.90;99.90;;;;;;5068692;28;20662;-66
2022/04/06 05:37:43;;;;;;;8.17;7.37;;;9.90;99.90;;;;;;5070909;28;20182;-66
2022/04/06 05:40:10;;;;;;;7.87;7.23;;;10.00;99.90;;;;;;5058013;28;20256;-66
2022/04/06 05:42:36;;;;;;;8.90;7.13;;;10.00;99.90;;;;;;5070648;28;20202;-66
2022/04/06 05:45:04;;;;;;;9.33;8.30;;;10.00;99.90;;;;;;5072672;28;20221;-65
2022/04/06 05:47:29;;;;;;;10.07;6.90;;;10.00;99.90;;;;;;5074242;28;20585;-66
2022/04/06 05:49:55;;;;;;;7.50;6.80;;;10.00;99.90;;;;;;5063525;28;20185;-67
2022/04/06 05:52:21;;;;;;;9.90;6.80;;;10.00;99.90;;;;;;5054167;28;20647;-65
2022/04/06 05:54:47;;;;;;;12.57;7.23;;;10.00;99.90;;;;;;5061826;28;20194;-65
2022/04/06 05:57:12;;;;;;;8.17;6.90;;;10.00;99.90;;;;;;5074006;28;20233;-65
2022/04/06 05:59:38;;;;;;;11.10;7.17;;;10.00;99.90;;;;;;5068505;28;20186;-65
2022/04/06 06:02:04;;;;;;;7.80;6.83;;;10.00;99.90;;;;;;5061428;28;20178;-65
2022/04/06 06:04:30;;;;;;;7.37;6.63;;;10.00;99.90;;;;;;5053241;28;20261;-66
2022/04/06 06:06:55;;;;;;;8.33;7.53;;;10.00;99.90;;;;;;5054390;28;20241;-66
2022/04/06 06:09:21;;;;;;;7.33;6.73;;;10.10;99.90;;;;;;5054208;28;20205;-66
2022/04/06 06:11:46;;;;;;;7.37;6.77;;;10.10;99.90;;;;;;5070339;28;20186;-65
2022/04/06 06:14:12;;;;;;;7.37;6.77;;;10.10;99.90;;;;;;5072203;28;20849;-65
2022/04/06 06:16:38;;;;;;;8.10;7.40;;;10.10;99.90;;;;;;5057162;28;20198;-66
2022/04/06 06:19:04;;;;;;;10.63;7.03;;;10.10;99.90;;;;;;5053595;28;20670;-66
2022/04/06 06:21:32;;;;;;;7.60;6.90;;;10.20;99.90;;;;;;5066999;28;20186;-65
2022/04/06 06:24:02;;;;;;;7.60;7.00;;;10.10;99.90;;;;;;5073064;28;20628;-65
2022/04/06 06:26:28;;;;;;;8.10;7.40;;;10.10;99.90;;;;;;5058127;28;20206;-65
2022/04/06 06:28:53;;;;;;;8.90;7.70;;;10.10;99.90;;;;;;5052857;28;20202;-65
2022/04/06 06:31:19;;;;;;;7.70;6.90;;;10.20;99.90;;;;;;5052929;28;20261;-65
2022/04/06 06:33:45;;;;;;;11.73;7.40;;;10.20;99.90;;;;;;5052787;28;20179;-66
2022/04/06 06:36:11;;;;;;;8.63;6.40;;;10.20;99.90;;;;;;5061450;28;20205;-66
2022/04/06 06:38:37;;;;;;;7.33;6.30;;;10.20;99.90;;;;;;5073069;28;20253;-66
2022/04/06 06:41:02;;;;;;;8.43;6.80;;;10.20;99.90;;;;;;5065125;28;20186;-65
2022/04/06 06:43:28;;;;;;;7.27;6.73;;;10.20;99.90;;;;;;5052795;28;20189;-66
2022/04/06 06:45:53;;;;;;;7.90;6.77;;;10.30;99.90;;;;;;5057318;28;20284;-65
2022/04/06 06:48:19;;;;;;;8.60;6.37;;;10.30;99.90;;;;;;5070423;28;20205;-66
2022/04/06 06:50:44;;;;;;;7.20;6.70;;;10.30;99.90;;;;;;5069047;28;20275;-66
2022/04/06 06:53:10;;;;;;;7.77;7.07;;;10.30;99.90;;;;;;5052883;28;20179;-66
2022/04/06 06:55:36;;;;;;;7.20;6.60;;;10.40;99.90;;;;;;5052150;28;20230;-66
2022/04/06 06:58:01;;;;;;;7.07;6.53;;;10.40;99.90;;;;;;5071741;28;20193;-65
2022/04/06 07:00:27;;;;;;;7.30;6.70;;;10.50;99.90;;;;;;5072893;28;20170;-66
2022/04/06 07:02:52;;;;;;;7.20;6.47;;;10.50;99.90;;;;;;5053168;28;20185;-65
2022/04/06 07:05:18;;;;;;;6.93;6.33;;;10.50;99.90;;;;;;5051903;28;20175;-66
2022/04/06 07:07:54;;;;;;;7.10;6.50;;;10.60;99.90;;;;;;5069927;28;20482;-65
2022/04/06 07:10:25;;;;;;;7.20;6.50;;;10.60;99.90;;;;;;5072480;28;20174;-66
2022/04/06 07:12:52;;;;;;;7.70;7.03;;;10.70;99.90;;;;;;5070726;28;20182;-67
2022/04/06 07:15:18;;;;;;;6.40;5.80;;;10.70;99.90;;;;;;5071047;28;20198;-66
2022/04/06 07:17:44;;;;;;;9.67;6.53;;;10.80;99.90;;;;;;5055642;28;20187;-66
2022/04/06 07:20:10;;;;;;;8.07;6.27;;;10.80;99.90;;;;;;5052340;28;20281;-66
2022/04/06 07:22:36;;;;;;;6.47;6.00;;;10.90;99.90;;;;;;5067817;28;20185;-66
2022/04/06 07:25:03;;;;;;;7.30;6.60;;;10.90;99.90;;;;;;5067711;28;20190;-66
2022/04/06 07:27:38;;;;;;;6.63;6.10;;;11.00;99.90;;;;;;5052446;28;20210;-66
2022/04/06 07:30:06;;;;;;;6.90;6.40;;;11.00;99.90;;;;;;5052659;28;20247;-67
2022/04/06 07:32:32;;;;;;;6.57;6.07;;;11.00;99.90;;;;;;5071355;28;20174;-66
2022/04/06 07:34:58;;;;;;;7.20;6.07;;;10.90;99.90;;;;;;5070679;28;20174;-65
2022/04/06 07:37:24;;;;;;;7.10;6.50;;;10.90;99.90;;;;;;5052194;28;20560;-66
2022/04/06 07:39:49;;;;;;;6.67;6.17;;;10.90;99.90;;;;;;5062384;28;20182;-66
2022/04/06 07:42:15;;;;;;;6.23;5.83;;;10.90;99.90;;;;;;5064262;28;20174;-66
2022/04/06 07:44:40;;;;;;;6.60;5.97;;;10.80;99.90;;;;;;5051807;28;20254;-67
2022/04/06 07:47:06;;;;;;;9.13;6.20;;;10.90;99.90;;;;;;5060611;28;20527;-67
2022/04/06 07:49:32;;;;;;;9.17;6.40;;;11.00;99.90;;;;;;5056398;28;20244;-66
2022/04/06 07:51:57;;;;;;;6.30;5.80;;;11.00;99.90;;;;;;5055993;28;20244;-66
2022/04/06 07:54:23;;;;;;;6.30;5.90;;;11.00;99.90;;;;;;5070359;28;20276;-67
2022/04/06 07:56:48;;;;;;;6.90;6.37;;;11.00;99.90;;;;;;5068204;28;20206;-66
2022/04/06 07:59:14;;;;;;;6.70;6.10;;;11.10;99.90;;;;;;5055283;28;20600;-67
2022/04/06 08:01:40;;;;;;;6.73;6.07;;;11.00;99.90;;;;;;5051907;28;20265;-66
2022/04/06 08:04:05;;;;;;;6.47;5.80;;;11.00;99.90;;;;;;5061525;28;20243;-66
2022/04/06 08:06:31;;;;;;;5.60;5.30;;;10.90;99.90;;;;;;5071555;28;20197;-67
2022/04/06 08:08:58;;;;;;;8.00;6.37;;;11.00;99.90;;;;;;5063265;28;20199;-65
2022/04/06 08:11:24;;;;;;;6.60;6.20;;;10.80;99.90;;;;;;5051639;28;20159;-66
2022/04/06 08:13:50;;;;;;;7.57;6.83;;;10.70;99.90;;;;;;5056386;28;20178;-65
2022/04/06 08:16:16;;;;;;;7.03;5.87;;;10.70;99.90;;;;;;5065646;28;20681;-67
2022/04/06 08:18:42;;;;;;;6.63;6.23;;;10.70;99.90;;;;;;5071773;28;20251;-67
2022/04/06 08:21:09;;;;;;;7.07;6.43;;;10.70;99.90;;;;;;5063861;28;20182;-66
2022/04/06 08:23:35;;;;;;;6.90;6.30;;;10.70;99.90;;;;;;5051548;28;20167;-66
2022/04/06 08:26:00;;;;;;;7.67;6.97;;;10.70;99.90;;;;;;5056922;28;20197;-66
2022/04/06 08:28:26;;;;;;;9.80;6.57;;;10.80;99.90;;;;;;5071648;28;20200;-66
2022/04/06 08:30:52;;;;;;;6.43;5.77;;;10.90;99.90;;;;;;5067014;28;20688;-67
2022/04/06 08:33:17;;;;;;;6.47;5.80;;;10.90;99.90;;;;;;5050314;28;20542;-66
2022/04/06 08:35:43;;;;;;;6.27;5.87;;;10.90;99.90;;;;;;5051787;28;20207;-66
2022/04/06 08:38:15;;;;;;;6.10;5.70;;;10.80;99.90;;;;;;5051379;28;20229;-65
2022/04/06 08:40:42;;;;;;;6.40;5.97;;;10.90;99.90;;;;;;5051216;28;20232;-67
2022/04/06 08:43:09;;;;;;;6.00;5.50;;;10.90;99.90;;;;;;5051401;28;20166;-66
2022/04/06 08:45:37;;;;;;;6.43;5.83;;;10.90;99.90;;;;;;5067740;28;20229;-66
2022/04/06 08:48:08;;;;;;;5.90;5.23;;;10.90;99.90;;;;;;5071187;28;20547;-66
2022/04/06 08:50:35;;;;;;;6.80;5.13;;;10.90;99.90;;;;;;5053120;28;20171;-66
2022/04/06 08:53:03;;;;;;;5.80;5.40;;;11.00;99.90;;;;;;5051166;28;20258;-66
2022/04/06 08:55:30;;;;;;;5.87;5.30;;;11.10;99.90;;;;;;5066531;28;20184;-66
2022/04/06 08:57:57;;;;;;;9.67;5.87;;;11.00;99.90;;;;;;5071178;28;20182;-65
2022/04/06 09:00:23;;;;;;;7.97;5.70;;;11.00;99.90;;;;;;5056458;28;20179;-65
2022/04/06 09:02:48;;;;;;;6.27;5.63;;;11.10;99.90;;;;;;5061053;28;20715;-65
2022/04/06 09:05:15;;;;;;;6.27;5.63;;;11.10;99.90;;;;;;5070959;28;20257;-66
2022/04/06 09:07:41;;;;;;;5.97;5.57;;;11.10;99.90;;;;;;5062153;28;20653;-65
2022/04/06 09:10:07;;;;;;;6.07;5.53;;;11.10;99.90;;;;;;5051436;28;20170;-65
2022/04/06 09:12:33;;;;;;;6.20;5.70;;;11.10;99.90;;;;;;5057399;28;20174;-66
2022/04/06 09:15:10;;;;;;;6.00;5.50;;;11.40;99.90;;;;;;5070872;28;20177;-66
2022/04/06 09:17:47;;;;;;;6.53;6.03;;;11.50;99.90;;;;;;5054960;28;20261;-67
2022/04/06 09:20:14;;;;;;;6.33;5.70;;;11.70;99.90;;;;;;5055031;28;20166;-65
2022/04/06 09:22:40;;;;;;;9.93;5.80;;;11.80;99.90;;;;;;5055076;28;20174;-66
2022/04/06 09:25:06;;;;;;;6.87;5.80;;;11.90;99.90;;;;;;5054529;28;20170;-66
2022/04/06 09:27:33;;;;;;;6.30;5.80;;;12.10;99.90;;;;;;5069019;28;20205;-65
2022/04/06 09:30:02;;;;;;;5.27;4.80;;;12.40;99.90;;;;;;5074884;28;20227;-65
2022/04/06 09:32:27;;;;;;;6.23;5.70;;;12.60;99.90;;;;;;5061379;28;20186;-66
2022/04/06 09:34:53;;;;;;;6.13;5.60;;;12.70;99.90;;;;;;5056739;28;20595;-65
2022/04/06 09:37:30;;;;;;;5.63;5.23;;;12.80;99.90;;;;;;5063452;28;20691;-65
2022/04/06 09:39:57;;;;;;;5.63;5.13;;;13.00;99.90;;;;;;5054614;28;20170;-65
2022/04/06 09:42:27;;;;;;;6.43;5.00;;;13.30;99.90;;;;;;5059244;28;20216;-65
2022/04/06 09:47:51;;;;;;;7.70;5.10;;;13.50;99.90;;;;;;5069430;28;20182;-66
2022/04/06 09:50:22;;;;;;;5.97;5.40;;;13.40;99.90;;;;;;5068235;28;20582;-66
2022/04/06 09:52:52;;;;;;;5.90;5.40;;;13.50;99.90;;;;;;5073511;28;20181;-66
2022/04/06 09:55:19;;;;;;;6.27;5.70;;;13.50;99.90;;;;;;5071899;28;20327;-66
2022/04/06 09:57:52;;;;;;;7.10;5.87;;;13.50;99.90;;;;;;5074159;28;20182;-66
2022/04/06 10:00:20;;;;;;;5.53;5.13;;;13.50;99.90;;;;;;5066794;28;20237;-66
2022/04/06 10:03:11;;;;;;;5.93;5.50;;;13.70;99.90;;;;;;5055434;28;20175;-65
2022/04/06 10:05:38;;;;;;;6.17;5.77;;;13.60;99.90;;;;;;5073222;28;20210;-66
2022/04/06 10:08:05;;;;;;;6.13;5.67;;;13.40;99.90;;;;;;5069979;28;20252;-69
2022/04/06 10:10:32;;;;;;;5.70;5.20;;;13.10;99.90;;;;;;5052788;28;20178;-65
2022/04/06 10:12:59;;;;;;;5.77;5.37;;;13.00;99.90;;;;;;5054533;28;20166;-66
2022/04/06 10:15:25;;;;;;;6.07;5.60;;;13.00;99.90;;;;;;5073289;28;20174;-66
2022/04/06 10:17:51;;;;;;;5.17;4.83;;;13.00;99.90;;;;;;5073342;28;20607;-66
2022/04/06 10:20:33;;;;;;;5.93;5.43;;;12.70;99.90;;;;;;5053896;28;20594;-66
2022/04/06 10:23:27;;;;;;;10.70;5.57;;;12.60;99.90;;;;;;5054601;28;20171;-66
2022/04/06 10:26:20;;;;;;;6.60;5.60;;;12.40;99.90;;;;;;5073222;28;20212;-66
2022/04/06 10:28:49;;;;;;;10.53;5.47;;;12.40;99.90;;;;;;5066368;28;20284;-65
2022/04/06 10:31:17;;;;;;;7.43;5.67;;;12.20;99.90;;;;;;5072358;28;20170;-65
2022/04/06 10:33:44;;;;;;;6.37;5.70;;;12.20;99.90;;;;;;5058849;28;20588;-66
2022/04/06 10:36:20;;;;;;;6.20;5.60;;;12.30;99.90;;;;;;5053065;28;20202;-67
2022/04/06 10:39:07;;;;;;;6.30;5.70;;;12.30;99.90;;;;;;5066158;28;20235;-66
2022/04/06 10:41:59;;;;;;;6.70;5.20;;;12.50;99.90;;;;;;5064390;28;20175;-66
2022/04/06 10:44:51;;;;;;;6.37;5.70;;;12.50;99.90;;;;;;5053234;28;20185;-66
2022/04/06 10:47:17;;;;;;;7.37;5.90;;;12.50;99.90;;;;;;5065305;28;20684;-65
2022/04/06 10:50:13;;;;;;;5.33;5.03;;;12.50;99.90;;;;;;5071951;28;20551;-66
2022/04/06 10:52:39;;;;;;;6.10;5.70;;;12.50;99.90;;;;;;5054849;28;20186;-67
2022/04/06 10:55:19;;;;;;;6.73;6.23;;;12.50;99.90;;;;;;5071174;28;20644;-66
2022/04/06 10:58:02;;;;;;;6.17;5.40;;;12.60;99.90;;;;;;5055819;28;20528;-66
2022/04/06 11:00:28;;;;;;;6.13;5.60;;;12.70;99.90;;;;;;5053244;28;20169;-66
2022/04/06 11:02:58;;;;;;;6.20;5.60;;;12.60;99.90;;;;;;5070132;28;20615;-66
2022/04/06 11:05:45;;;;;;;5.87;5.37;;;12.60;99.90;;;;;;5072556;28;20631;-66
2022/04/06 11:11:43;;;;;;;5.80;5.30;;;12.70;99.90;;;;;;5057547;28;20681;-66
2022/04/06 11:14:09;;;;;;;5.23;4.93;;;12.70;99.90;;;;;;5072644;28;20162;-66
2022/04/06 11:16:40;;;;;;;7.27;5.47;;;12.60;99.90;;;;;;5066821;28;20194;-66
2022/04/06 11:19:06;;;;;;;5.63;5.13;;;12.60;99.90;;;;;;5052902;28;20163;-66
2022/04/06 11:21:32;;;;;;;6.40;5.80;;;12.50;99.90;;;;;;5052866;28;20190;-66
2022/04/06 11:23:58;;;;;;;5.63;5.27;;;12.50;99.90;;;;;;5051763;28;20175;-66
2022/04/06 11:26:25;;;;;;;6.00;5.60;;;12.60;99.90;;;;;;5057638;28;20698;-66
2022/04/06 11:28:58;;;;;;;5.70;5.30;;;12.80;99.90;;;;;;5072772;28;20212;-67
2022/04/06 11:31:24;;;;;;;6.53;5.40;;;12.90;99.90;;;;;;5067468;28;20171;-66
2022/04/06 11:33:50;;;;;;;5.40;5.10;;;13.10;99.90;;;;;;5052568;28;20175;-66
2022/04/06 11:36:19;;;;;;;5.50;5.20;;;13.40;99.90;;;;;;5054646;28;20209;-66
2022/04/06 11:38:49;;;;;;;6.53;5.90;;;13.40;99.90;;;;;;5071059;28;20257;-66
2022/04/06 11:41:15;;;;;;;6.10;5.60;;;13.30;99.90;;;;;;5069210;28;20189;-66
2022/04/06 11:43:42;;;;;;;5.50;5.10;;;13.10;99.90;;;;;;5052170;28;20179;-66
2022/04/06 11:46:08;;;;;;;5.97;5.37;;;13.10;99.90;;;;;;5052277;28;20191;-65
2022/04/06 11:48:41;;;;;;;5.47;5.10;;;13.20;99.90;;;;;;5050665;28;20297;-66
2022/04/06 11:51:07;;;;;;;6.00;5.50;;;13.10;99.90;;;;;;5052144;28;20417;-66
2022/04/06 11:53:33;;;;;;;7.87;5.60;;;13.10;99.90;;;;;;5051027;28;20183;-66
2022/04/06 11:56:01;;;;;;;6.10;5.60;;;13.00;99.90;;;;;;5051072;28;20537;-66
2022/04/06 11:58:38;;;;;;;5.93;5.50;;;13.10;99.90;;;;;;5071031;28;20174;-66
2022/04/06 12:01:08;;;;;;;5.60;5.20;;;13.30;99.90;;;;;;5068985;28;20180;-66
2022/04/06 12:03:42;;;;;;;6.03;5.60;;;13.10;99.90;;;;;;5051687;28;20189;-66
2022/04/06 12:06:14;;;;;;;8.43;5.33;;;13.00;99.90;;;;;;5053353;28;20186;-66
2022/04/06 12:08:41;;;;;;;6.67;6.17;;;13.00;99.90;;;;;;5070876;28;20289;-67
2022/04/06 12:11:08;;;;;;;5.70;5.30;;;13.10;99.90;;;;;;5069373;28;20174;-65
2022/04/06 12:13:41;;;;;;;6.17;5.57;;;12.90;99.90;;;;;;5051489;28;20244;-66
2022/04/06 12:16:08;;;;;;;5.77;5.30;;;12.70;99.90;;;;;;5069312;28;20190;-66
2022/04/06 12:18:37;;;;;;;6.43;6.03;;;12.70;99.90;;;;;;5071688;28;20729;-66
2022/04/06 12:21:02;;;;;;;5.80;5.30;;;12.70;99.90;;;;;;5052363;28;20178;-66
2022/04/06 12:23:29;;;;;;;6.17;5.77;;;12.60;99.90;;;;;;5051525;28;20186;-66
2022/04/06 12:25:56;;;;;;;6.53;6.03;;;12.50;99.90;;;;;;5066187;28;20263;-65
2022/04/06 12:28:22;;;;;;;6.47;5.80;;;12.60;99.90;;;;;;5070253;28;20205;-66
2022/04/06 12:31:01;;;;;;;6.03;5.53;;;12.60;99.90;;;;;;5057338;28;20201;-67
2022/04/06 12:33:46;;;;;;;6.47;5.97;;;12.70;99.90;;;;;;5051436;28;20166;-66
2022/04/06 12:36:16;;;;;;;5.93;5.53;;;12.60;99.90;;;;;;5067202;28;20255;-66
2022/04/06 12:39:03;;;;;;;6.60;6.10;;;12.60;99.90;;;;;;5071138;28;20173;-65
2022/04/06 12:41:34;;;;;;;5.43;5.13;;;12.60;99.90;;;;;;5069578;28;20189;-65
2022/04/06 12:44:02;;;;;;;5.90;5.47;;;12.70;99.90;;;;;;5071215;28;20667;-65
2022/04/06 12:46:43;;;;;;;6.93;6.00;;;12.70;99.90;;;;;;5053049;28;20202;-65
2022/04/06 12:49:36;;;;;;;8.10;6.10;;;12.60;99.90;;;;;;5051558;28;20202;-66
2022/04/06 12:52:06;;;;;;;6.53;6.03;;;12.40;99.90;;;;;;5057569;28;20578;-65
2022/04/06 12:54:33;;;;;;;6.30;5.70;;;12.40;99.90;;;;;;5068937;28;20631;-66
2022/04/06 12:57:38;;;;;;;6.73;6.10;;;12.40;99.90;;;;;;5070504;28;20225;-66